Time;durP1;ratioP1;P1;durP2;ratioP2;P2;SDS_P1;SDS_P2;PMS_P1;PMS_P2;Temp;Humidity;BMP_temperature;BMP_pressure;BME280_temperature;BME280_humidity;BME280_pressure;Samples;Min_cycle;Max_cycle;Signal;HPM_P1;HPM_P2
2023/03/16 00:02:04;;;;;;;4.20;2.47;;;0.80;99.90;;;;;;4966975;28;20039;-31
2023/03/16 00:04:29;;;;;;;3.90;2.83;;;0.80;99.90;;;;;;4965984;28;20023;-32
2023/03/16 00:07:20;;;;;;;2.92;2.40;;;0.80;99.90;;;;;;4963954;28;20094;-33
2023/03/16 00:09:46;;;;;;;5.07;3.00;;;0.80;99.90;;;;;;4967700;28;20037;-33
2023/03/16 00:12:17;;;;;;;3.70;2.13;;;0.80;99.90;;;;;;4991117;28;20027;-31
2023/03/16 00:14:45;;;;;;;3.45;2.65;;;0.80;99.90;;;;;;4963246;28;20019;-29
2023/03/16 00:17:17;;;;;;;2.67;2.43;;;0.70;99.90;;;;;;4959809;28;20023;-30
2023/03/16 00:20:21;;;;;;;2.65;2.10;;;0.70;99.90;;;;;;4959794;28;20748;-33
2023/03/16 00:22:47;;;;;;;4.40;2.08;;;0.60;99.90;;;;;;4963473;28;20030;-32
2023/03/16 00:25:13;;;;;;;2.22;2.03;;;0.60;99.90;;;;;;4958873;28;20717;-32
2023/03/16 00:27:40;;;;;;;3.60;2.67;;;0.50;99.90;;;;;;4962236;28;20039;-31
2023/03/16 00:30:06;;;;;;;3.80;2.58;;;0.40;99.90;;;;;;4967871;28;20041;-32
2023/03/16 00:32:34;;;;;;;4.63;3.17;;;0.30;99.90;;;;;;4978712;28;20617;-35
2023/03/16 00:35:01;;;;;;;8.13;3.70;;;0.50;99.90;;;;;;4961724;28;20074;-32
2023/03/16 00:37:28;;;;;;;4.82;3.38;;;0.40;99.90;;;;;;4964048;28;20031;-33
2023/03/16 00:39:55;;;;;;;3.78;3.00;;;0.50;99.90;;;;;;4970033;28;20065;-31
2023/03/16 00:42:26;;;;;;;7.88;4.13;;;0.40;99.90;;;;;;4963834;28;20058;-33
2023/03/16 00:44:55;;;;;;;5.82;3.90;;;0.40;99.90;;;;;;4985570;28;20031;-30
2023/03/16 00:47:22;;;;;;;4.47;3.17;;;0.40;99.90;;;;;;4964131;28;20407;-30
2023/03/16 00:49:48;;;;;;;5.82;3.50;;;0.30;99.90;;;;;;4971575;28;20049;-33
2023/03/16 00:52:13;;;;;;;4.80;3.70;;;0.30;99.90;;;;;;4961153;28;20027;-30
2023/03/16 00:54:41;;;;;;;3.50;2.97;;;0.30;99.90;;;;;;4965104;28;20046;-31
2023/03/16 00:57:09;;;;;;;6.75;3.85;;;0.30;99.90;;;;;;4957811;28;20024;-33
2023/03/16 00:59:36;;;;;;;7.50;4.03;;;0.20;99.90;;;;;;4985279;28;20068;-30
2023/03/16 01:02:04;;;;;;;4.00;3.22;;;0.00;99.90;;;;;;4973192;28;20042;-32
2023/03/16 01:04:29;;;;;;;6.10;3.88;;;0.00;99.90;;;;;;4976384;28;20038;-33
2023/03/16 01:06:55;;;;;;;8.70;4.15;;;0.00;99.90;;;;;;4983219;28;20041;-32
2023/03/16 01:09:20;;;;;;;4.68;3.53;;;-0.10;99.90;;;;;;4980972;28;20546;-33
2023/03/16 01:11:50;;;;;;;4.90;3.90;;;-0.20;99.90;;;;;;4985532;28;20034;-32
2023/03/16 01:14:16;;;;;;;4.10;3.63;;;-0.10;99.90;;;;;;4983421;28;20157;-34
2023/03/16 01:16:44;;;;;;;7.90;4.35;;;-0.10;99.90;;;;;;4982861;28;20157;-33
2023/03/16 01:19:13;;;;;;;11.27;5.70;;;-0.10;99.90;;;;;;4981702;28;20396;-33
2023/03/16 01:21:41;;;;;;;6.63;5.45;;;-0.10;99.90;;;;;;4984895;28;20408;-34
2023/03/16 01:24:07;;;;;;;11.75;7.10;;;-0.20;99.90;;;;;;4980492;28;20100;-32
2023/03/16 01:26:33;;;;;;;4.90;4.38;;;-0.20;99.90;;;;;;4999278;28;20053;-35
2023/03/16 01:28:59;;;;;;;5.72;3.17;;;-0.40;99.90;;;;;;4981855;28;20171;-31
2023/03/16 01:31:24;;;;;;;10.70;4.57;;;-0.40;99.90;;;;;;4970561;28;20035;-32
2023/03/16 01:33:51;;;;;;;7.47;3.42;;;-0.30;99.90;;;;;;4958768;28;20031;-30
2023/03/16 01:36:18;;;;;;;4.10;3.17;;;-0.40;99.90;;;;;;4961988;28;20505;-31
2023/03/16 01:38:44;;;;;;;10.60;3.63;;;-0.50;99.90;;;;;;4966316;28;20099;-32
2023/03/16 01:41:11;;;;;;;4.47;4.07;;;-0.40;99.90;;;;;;4960518;28;20393;-32
2023/03/16 01:43:39;;;;;;;5.72;4.03;;;-0.40;99.90;;;;;;4959236;28;20077;-35
2023/03/16 01:46:04;;;;;;;5.18;4.32;;;-0.40;99.90;;;;;;4966467;28;20869;-33
2023/03/16 01:48:36;;;;;;;16.15;8.88;;;-0.40;99.90;;;;;;4958550;28;20507;-33
2023/03/16 01:51:22;;;;;;;14.65;8.38;;;-0.40;99.90;;;;;;4966206;28;20384;-31
2023/03/16 01:53:51;;;;;;;14.50;9.43;;;-0.40;99.90;;;;;;4965315;28;20035;-31
2023/03/16 01:56:22;;;;;;;8.02;6.18;;;-0.40;99.90;;;;;;4961392;28;20054;-32
2023/03/16 01:58:50;;;;;;;9.93;3.55;;;-0.40;99.90;;;;;;4960249;28;20512;-32
2023/03/16 02:01:17;;;;;;;9.20;4.10;;;-0.50;99.90;;;;;;4960122;28;20034;-42
2023/03/16 02:03:43;;;;;;;5.47;4.38;;;-0.50;99.90;;;;;;4957874;28;20027;-42
2023/03/16 02:06:16;;;;;;;4.50;2.72;;;-0.70;99.90;;;;;;4959504;28;20023;-42
2023/03/16 02:08:44;;;;;;;4.22;3.03;;;-0.60;99.90;;;;;;4962961;28;20034;-42
2023/03/16 02:11:11;;;;;;;4.20;3.53;;;-0.70;99.90;;;;;;4962968;28;20114;-42
2023/03/16 02:13:36;;;;;;;7.35;4.03;;;-0.70;99.90;;;;;;4965114;28;20464;-43
2023/03/16 02:16:07;;;;;;;6.25;3.65;;;-0.70;99.90;;;;;;4963536;28;20330;-42
2023/03/16 02:18:34;;;;;;;2.92;2.67;;;-0.70;99.90;;;;;;4962619;28;20369;-42
2023/03/16 02:21:35;;;;;;;4.90;2.92;;;-0.70;99.90;;;;;;4965623;28;20530;-42
2023/03/16 02:24:02;;;;;;;4.85;3.30;;;-0.60;99.90;;;;;;4965223;28;20110;-42
2023/03/16 02:26:52;;;;;;;3.92;2.58;;;-0.60;99.90;;;;;;4967197;28;20030;-42
2023/03/16 02:29:42;;;;;;;6.25;3.28;;;-0.60;99.90;;;;;;4958878;28;20030;-47
2023/03/16 02:32:12;;;;;;;6.20;3.60;;;-0.70;99.90;;;;;;4963910;28;20035;-42
2023/03/16 02:34:38;;;;;;;5.47;3.72;;;-0.80;99.90;;;;;;4963686;28;20060;-43
2023/03/16 02:37:06;;;;;;;4.97;3.33;;;-0.70;99.90;;;;;;4961917;28;20129;-42
2023/03/16 02:39:33;;;;;;;4.05;3.60;;;-0.70;99.90;;;;;;4968667;28;20109;-42
2023/03/16 02:42:00;;;;;;;5.88;3.63;;;-0.70;99.90;;;;;;4963510;28;20034;-42
2023/03/16 02:44:32;;;;;;;4.55;4.18;;;-0.80;99.90;;;;;;4967514;28;20397;-43
2023/03/16 02:47:06;;;;;;;4.43;3.15;;;-0.70;99.90;;;;;;4969287;28;20488;-42
2023/03/16 02:49:42;;;;;;;5.50;4.20;;;-0.70;99.90;;;;;;4961792;28;20062;-42
2023/03/16 02:52:08;;;;;;;3.88;3.45;;;-0.80;99.90;;;;;;4962547;28;20046;-43
2023/03/16 02:54:34;;;;;;;3.63;3.33;;;-0.80;99.90;;;;;;4964405;28;20480;-42
2023/03/16 02:57:00;;;;;;;6.13;4.00;;;-0.80;99.90;;;;;;4962653;28;20035;-42
2023/03/16 02:59:26;;;;;;;7.88;4.22;;;-0.80;99.90;;;;;;4970840;28;20432;-43
2023/03/16 03:01:52;;;;;;;3.15;2.85;;;-0.90;99.90;;;;;;4963081;28;20089;-43
2023/03/16 03:04:17;;;;;;;13.63;3.90;;;-0.90;99.90;;;;;;4962886;28;20043;-42
2023/03/16 03:06:43;;;;;;;5.95;3.70;;;-0.90;99.90;;;;;;4967014;28;20122;-43
2023/03/16 03:09:11;;;;;;;3.00;2.60;;;-0.90;99.90;;;;;;4967004;28;20034;-43
2023/03/16 03:11:37;;;;;;;2.97;2.72;;;-1.00;99.90;;;;;;4968518;28;20054;-43
2023/03/16 03:14:03;;;;;;;2.92;2.20;;;-1.00;99.90;;;;;;4964255;28;20061;-43
2023/03/16 03:16:30;;;;;;;2.17;2.08;;;-1.10;99.90;;;;;;4964719;28;20030;-43
2023/03/16 03:18:56;;;;;;;3.78;2.22;;;-1.10;99.90;;;;;;4971266;28;20740;-42
2023/03/16 03:21:22;;;;;;;3.65;3.45;;;-1.10;99.90;;;;;;4963171;28;20028;-43
2023/03/16 03:23:48;;;;;;;3.90;3.60;;;-1.10;99.90;;;;;;4965385;28;20034;-43
2023/03/16 03:26:14;;;;;;;5.50;3.25;;;-1.20;99.90;;;;;;4969309;28;20504;-42
2023/03/16 03:28:40;;;;;;;4.82;3.58;;;-1.20;99.90;;;;;;4962510;28;20038;-42
2023/03/16 03:31:11;;;;;;;6.22;3.42;;;-1.20;99.90;;;;;;4966090;28;20564;-43
2023/03/16 03:33:37;;;;;;;5.50;4.53;;;-1.10;99.90;;;;;;4963942;28;20106;-43
2023/03/16 03:36:04;;;;;;;5.95;3.45;;;-1.10;99.90;;;;;;4967627;28;20050;-43
2023/03/16 03:38:29;;;;;;;4.28;2.92;;;-1.20;99.90;;;;;;4968815;28;20482;-43
2023/03/16 03:41:01;;;;;;;6.60;3.75;;;-1.20;99.90;;;;;;4964396;28;20062;-42
2023/03/16 03:43:26;;;;;;;3.40;2.97;;;-1.10;99.90;;;;;;4966406;28;20035;-43
2023/03/16 03:45:56;;;;;;;4.38;2.47;;;-1.20;99.90;;;;;;4971268;28;20027;-42
2023/03/16 03:48:23;;;;;;;4.47;2.95;;;-1.30;99.90;;;;;;4965488;28;20035;-43
2023/03/16 03:50:48;;;;;;;3.65;2.30;;;-1.40;99.90;;;;;;4963367;28;20141;-42
2023/03/16 03:53:14;;;;;;;3.40;3.08;;;-1.40;99.90;;;;;;4966452;28;20110;-43
2023/03/16 03:55:39;;;;;;;3.33;2.60;;;-1.40;99.90;;;;;;4958607;28;20093;-42
2023/03/16 03:58:05;;;;;;;5.55;3.60;;;-1.40;99.90;;;;;;4969632;28;20568;-43
2023/03/16 04:00:30;;;;;;;3.83;3.13;;;-1.40;99.90;;;;;;4969162;28;20027;-43
2023/03/16 04:02:56;;;;;;;3.60;2.60;;;-1.30;99.90;;;;;;4965777;28;20034;-43
2023/03/16 04:05:24;;;;;;;1.88;1.75;;;-1.30;99.90;;;;;;4959612;28;20536;-42
2023/03/16 04:07:53;;;;;;;2.15;2.03;;;-1.30;99.90;;;;;;4963880;28;20564;-43
2023/03/16 04:10:19;;;;;;;3.95;2.30;;;-1.40;99.90;;;;;;4963136;28;20054;-43
2023/03/16 04:12:45;;;;;;;3.42;2.20;;;-1.40;99.90;;;;;;4967752;28;20424;-42
2023/03/16 04:15:11;;;;;;;2.22;2.13;;;-1.50;99.90;;;;;;4963608;28;20027;-43
2023/03/16 04:17:37;;;;;;;2.00;1.90;;;-1.50;99.90;;;;;;4965047;28;20037;-43
2023/03/16 04:20:12;;;;;;;3.13;2.70;;;-1.60;99.90;;;;;;4968071;28;20031;-43
2023/03/16 04:22:37;;;;;;;3.55;3.15;;;-1.60;99.90;;;;;;4962381;28;20042;-43
2023/03/16 04:25:04;;;;;;;3.85;3.28;;;-1.50;99.90;;;;;;4965140;28;20039;-42
2023/03/16 04:27:35;;;;;;;9.15;4.32;;;-1.50;99.90;;;;;;4964764;28;20496;-43
2023/03/16 04:30:05;;;;;;;15.80;5.30;;;-1.50;99.90;;;;;;4965705;28;20062;-43
2023/03/16 04:32:34;;;;;;;4.45;3.17;;;-1.40;99.90;;;;;;4963472;28;20539;-43
2023/03/16 04:35:00;;;;;;;8.50;2.72;;;-1.40;99.90;;;;;;4963511;28;20081;-43
2023/03/16 04:37:26;;;;;;;3.05;2.75;;;-1.40;99.90;;;;;;4961338;28;20066;-42
2023/03/16 04:39:51;;;;;;;2.15;2.05;;;-1.50;99.90;;;;;;4961949;28;20073;-43
2023/03/16 04:42:17;;;;;;;2.90;2.03;;;-1.60;99.90;;;;;;4968799;28;20041;-43
2023/03/16 04:44:43;;;;;;;2.90;2.75;;;-1.70;99.90;;;;;;4965567;28;20035;-43
2023/03/16 04:47:11;;;;;;;4.18;2.85;;;-1.70;99.90;;;;;;4968050;28;20114;-43
2023/03/16 04:49:37;;;;;;;3.33;2.80;;;-1.80;99.90;;;;;;4970621;28;20050;-42
2023/03/16 04:52:03;;;;;;;3.88;3.30;;;-1.80;99.90;;;;;;4967951;28;20031;-43
2023/03/16 04:54:29;;;;;;;2.97;2.70;;;-1.70;99.90;;;;;;4964203;28;20060;-43
2023/03/16 04:56:55;;;;;;;3.75;3.30;;;-1.70;99.90;;;;;;4962228;28;20050;-43
2023/03/16 04:59:20;;;;;;;3.63;3.28;;;-1.70;99.90;;;;;;4969761;28;20089;-43
2023/03/16 05:01:47;;;;;;;3.35;2.97;;;-1.60;99.90;;;;;;4992919;28;20043;-43
2023/03/16 05:04:12;;;;;;;2.75;1.92;;;-1.60;99.90;;;;;;4967398;28;20049;-43
2023/03/16 05:06:38;;;;;;;4.22;3.03;;;-1.60;99.90;;;;;;4965595;28;20396;-43
2023/03/16 05:09:06;;;;;;;4.57;4.13;;;-1.70;99.90;;;;;;4960423;28;20034;-43
2023/03/16 05:11:32;;;;;;;4.22;3.28;;;-1.70;99.90;;;;;;4963805;28;20046;-43
2023/03/16 05:13:58;;;;;;;6.15;3.08;;;-1.80;99.90;;;;;;4963386;28;20073;-43
2023/03/16 05:16:23;;;;;;;9.60;4.53;;;-1.80;99.90;;;;;;4960758;28;20023;-43
2023/03/16 05:18:49;;;;;;;6.80;4.60;;;-1.80;99.90;;;;;;4960711;28;20067;-43
2023/03/16 05:21:15;;;;;;;7.30;3.85;;;-1.70;99.90;;;;;;4968231;28;20031;-42
2023/03/16 05:23:41;;;;;;;5.65;4.55;;;-1.80;99.90;;;;;;4962941;28;20035;-42
2023/03/16 05:26:07;;;;;;;9.85;3.92;;;-1.80;99.90;;;;;;4960854;28;20038;-42
2023/03/16 05:28:33;;;;;;;3.85;2.90;;;-1.70;99.90;;;;;;4960581;28;20042;-42
2023/03/16 05:30:58;;;;;;;5.38;3.20;;;-1.70;99.90;;;;;;4960193;28;20030;-42
2023/03/16 05:33:24;;;;;;;3.53;2.90;;;-1.70;99.90;;;;;;4962768;28;20031;-42
2023/03/16 05:35:51;;;;;;;4.63;3.15;;;-1.70;99.90;;;;;;4960547;28;20062;-42
2023/03/16 05:38:17;;;;;;;5.13;2.63;;;-1.80;99.90;;;;;;4962801;28;20035;-42
2023/03/16 05:40:42;;;;;;;2.95;2.67;;;-1.80;99.90;;;;;;4961622;28;20023;-42
2023/03/16 05:43:08;;;;;;;4.00;2.83;;;-1.90;99.90;;;;;;4956652;28;20031;-42
2023/03/16 05:45:33;;;;;;;3.95;3.22;;;-1.80;99.90;;;;;;4964006;28;20146;-42
2023/03/16 05:47:59;;;;;;;5.88;3.53;;;-1.80;99.90;;;;;;4968050;28;20489;-42
2023/03/16 05:50:25;;;;;;;12.82;5.65;;;-1.80;99.90;;;;;;4961804;28;20053;-42
2023/03/16 05:52:50;;;;;;;5.57;4.20;;;-1.80;99.90;;;;;;4961739;28;20024;-42
2023/03/16 05:55:17;;;;;;;10.57;5.50;;;-1.80;99.90;;;;;;4958858;28;20023;-43
2023/03/16 05:57:43;;;;;;;6.68;3.53;;;-1.70;99.90;;;;;;4962615;28;20035;-42
2023/03/16 06:00:14;;;;;;;5.47;3.88;;;-1.80;99.90;;;;;;4965735;28;20392;-43
2023/03/16 06:02:48;;;;;;;5.47;4.13;;;-1.70;99.90;;;;;;4964470;28;20129;-42
2023/03/16 06:05:15;;;;;;;7.00;3.78;;;-1.70;99.90;;;;;;4967186;28;20114;-42
2023/03/16 06:07:41;;;;;;;5.18;3.50;;;-1.70;99.90;;;;;;4963747;28;20031;-42
2023/03/16 06:10:07;;;;;;;9.45;4.05;;;-1.70;99.90;;;;;;4962632;28;20038;-42
2023/03/16 06:12:33;;;;;;;6.80;4.82;;;-1.60;99.90;;;;;;4956069;28;20379;-42
2023/03/16 06:15:00;;;;;;;8.60;4.60;;;-1.60;99.90;;;;;;4959179;28;20031;-43
2023/03/16 06:17:25;;;;;;;6.78;4.75;;;-1.50;99.90;;;;;;4964447;28;20097;-42
2023/03/16 06:19:51;;;;;;;4.70;3.80;;;-1.50;99.90;;;;;;4962325;28;20125;-42
2023/03/16 06:22:17;;;;;;;5.93;4.00;;;-1.50;99.90;;;;;;4962614;28;20031;-42
2023/03/16 06:24:43;;;;;;;5.00;4.45;;;-1.50;99.90;;;;;;4961731;28;20030;-42
2023/03/16 06:27:09;;;;;;;6.22;4.18;;;-1.40;99.90;;;;;;4961506;28;20542;-42
2023/03/16 06:29:34;;;;;;;4.68;3.95;;;-1.40;99.90;;;;;;4964480;28;20470;-42
2023/03/16 06:32:00;;;;;;;5.68;4.00;;;-1.40;99.90;;;;;;4962684;28;20065;-42
2023/03/16 06:34:26;;;;;;;5.68;4.30;;;-1.40;99.90;;;;;;4968103;28;20023;-42
2023/03/16 06:36:52;;;;;;;11.23;4.88;;;-1.30;99.90;;;;;;4962195;28;20039;-42
2023/03/16 06:39:17;;;;;;;7.82;5.40;;;-1.30;99.90;;;;;;4964253;28;20059;-42
2023/03/16 06:41:43;;;;;;;9.68;6.35;;;-1.30;99.90;;;;;;4966150;28;20069;-43
2023/03/16 06:44:10;;;;;;;10.07;5.50;;;-1.20;99.90;;;;;;4964100;28;20038;-42
2023/03/16 06:46:36;;;;;;;9.90;5.47;;;-1.10;99.90;;;;;;4968605;28;20030;-42
2023/03/16 06:49:03;;;;;;;8.45;6.13;;;-1.00;99.90;;;;;;4964861;28;20377;-42
2023/03/16 06:51:29;;;;;;;8.75;5.50;;;-1.00;99.90;;;;;;4969394;28;20055;-42
2023/03/16 06:53:54;;;;;;;10.10;7.15;;;-0.80;99.90;;;;;;4966092;28;20042;-42
2023/03/16 06:56:20;;;;;;;8.05;5.85;;;-0.80;99.90;;;;;;4956977;28;20043;-43
2023/03/16 06:58:46;;;;;;;11.35;6.32;;;-0.70;99.90;;;;;;4963801;28;20039;-42
2023/03/16 07:01:11;;;;;;;6.03;4.90;;;-0.60;99.90;;;;;;4966608;28;20086;-42
2023/03/16 07:03:37;;;;;;;11.63;6.80;;;-0.50;99.90;;;;;;4975136;28;20127;-42
2023/03/16 07:06:03;;;;;;;12.18;7.93;;;-0.40;99.90;;;;;;4965662;28;20114;-42
2023/03/16 07:08:29;;;;;;;12.98;7.65;;;-0.40;99.90;;;;;;4962521;28;20053;-42
2023/03/16 07:10:54;;;;;;;12.38;8.07;;;-0.20;99.90;;;;;;4961861;28;20448;-41
2023/03/16 07:13:20;;;;;;;12.38;6.95;;;-0.10;99.90;;;;;;4964672;28;20114;-42
2023/03/16 07:15:51;;;;;;;15.27;8.85;;;0.00;99.90;;;;;;4958614;28;20027;-42
2023/03/16 07:18:17;;;;;;;19.77;9.63;;;0.20;99.90;;;;;;4961706;28;20075;-42
2023/03/16 07:20:43;;;;;;;17.63;9.40;;;0.30;99.90;;;;;;4958810;28;20430;-42
2023/03/16 07:23:09;;;;;;;16.85;9.23;;;0.40;99.90;;;;;;4970494;28;20042;-42
2023/03/16 07:25:35;;;;;;;24.90;10.75;;;0.60;99.90;;;;;;4965011;28;20359;-42
2023/03/16 07:28:02;;;;;;;19.45;10.15;;;0.70;99.90;;;;;;4964402;28;20038;-43
2023/03/16 07:30:28;;;;;;;15.75;10.13;;;0.90;99.90;;;;;;4966010;28;20027;-41
2023/03/16 07:32:54;;;;;;;16.70;8.65;;;1.00;99.90;;;;;;4961121;28;20073;-42
2023/03/16 07:35:20;;;;;;;17.88;10.65;;;1.00;99.90;;;;;;4963428;28;20031;-42
2023/03/16 07:37:46;;;;;;;16.48;9.25;;;1.20;99.90;;;;;;4962920;28;20035;-42
2023/03/16 07:40:13;;;;;;;20.33;11.45;;;1.30;99.90;;;;;;4964662;28;20117;-42
2023/03/16 07:42:39;;;;;;;17.48;8.52;;;1.40;99.90;;;;;;4962837;28;20710;-42
2023/03/16 07:45:06;;;;;;;50.08;31.52;;;1.40;99.90;;;;;;4962799;28;20031;-42
2023/03/16 07:47:32;;;;;;;21.13;11.68;;;1.50;99.90;;;;;;4964153;28;20086;-42
2023/03/16 07:49:58;;;;;;;69.80;27.17;;;1.50;99.90;;;;;;5001048;28;20046;-42
2023/03/16 07:52:24;;;;;;;15.30;8.57;;;1.60;99.90;;;;;;4963767;28;20027;-42
2023/03/16 07:54:50;;;;;;;17.05;9.23;;;1.60;99.90;;;;;;4962049;28;20826;-42
2023/03/16 07:57:16;;;;;;;14.70;8.88;;;1.80;99.90;;;;;;4965797;28;20529;-42
2023/03/16 07:59:42;;;;;;;22.15;9.98;;;1.90;99.90;;;;;;4962848;28;20115;-42
2023/03/16 08:02:15;;;;;;;10.38;7.38;;;2.00;99.90;;;;;;4962106;28;20130;-42
2023/03/16 08:04:42;;;;;;;20.92;9.90;;;2.30;99.90;;;;;;4960505;28;20025;-42
2023/03/16 08:07:10;;;;;;;17.27;8.68;;;2.40;99.90;;;;;;4998553;28;20035;-42
2023/03/16 08:09:36;;;;;;;14.75;7.90;;;2.40;99.90;;;;;;4960368;28;20493;-42
2023/03/16 08:12:03;;;;;;;14.20;7.50;;;2.70;99.90;;;;;;4966381;28;20038;-42
2023/03/16 08:14:29;;;;;;;14.88;8.00;;;2.70;99.90;;;;;;4967936;28;20030;-43
2023/03/16 08:16:55;;;;;;;13.02;7.63;;;2.90;99.90;;;;;;4956046;28;20535;-43
2023/03/16 08:19:20;;;;;;;15.40;8.38;;;2.90;99.90;;;;;;4963858;28;20023;-42
2023/03/16 08:21:46;;;;;;;11.68;7.22;;;3.00;99.90;;;;;;4959738;28;20039;-42
2023/03/16 08:24:11;;;;;;;15.85;8.80;;;3.10;99.90;;;;;;4968978;28;20081;-42
2023/03/16 08:26:37;;;;;;;18.90;9.20;;;3.20;99.90;;;;;;4963065;28;20030;-42
2023/03/16 08:29:03;;;;;;;12.35;6.53;;;3.40;99.90;;;;;;4967411;28;20453;-42
2023/03/16 08:31:29;;;;;;;13.88;8.02;;;3.50;99.90;;;;;;4961305;28;20114;-42
2023/03/16 08:33:56;;;;;;;13.52;7.20;;;3.50;99.90;;;;;;4959454;28;20027;-42
2023/03/16 08:36:22;;;;;;;11.73;7.10;;;3.50;99.90;;;;;;4961015;28;20038;-42
2023/03/16 08:38:48;;;;;;;12.50;7.00;;;3.60;99.90;;;;;;4965124;28;20082;-42
2023/03/16 08:41:16;;;;;;;12.65;7.22;;;3.70;99.90;;;;;;4963643;28;20484;-45
2023/03/16 08:43:41;;;;;;;12.85;7.65;;;3.90;99.90;;;;;;4964180;28;20023;-42
2023/03/16 08:46:07;;;;;;;12.18;6.72;;;3.90;99.90;;;;;;4962459;28;20046;-42
2023/03/16 08:48:33;;;;;;;9.35;6.70;;;4.00;99.90;;;;;;4964798;28;20607;-42
2023/03/16 08:51:03;;;;;;;11.95;6.70;;;4.10;99.90;;;;;;4958818;28;20091;-42
2023/03/16 08:53:29;;;;;;;9.55;6.10;;;4.30;99.90;;;;;;4983881;28;20034;-42
2023/03/16 08:56:21;;;;;;;10.10;7.25;;;4.40;99.90;;;;;;4961712;28;20113;-41
2023/03/16 08:58:47;;;;;;;11.75;7.03;;;4.50;99.90;;;;;;4966320;28;20078;-42
2023/03/16 09:01:16;;;;;;;8.18;5.00;;;4.40;99.90;;;;;;4963132;28;20081;-42
2023/03/16 09:03:44;;;;;;;11.75;7.25;;;4.40;99.90;;;;;;4960321;28;20493;-42
2023/03/16 09:06:12;;;;;;;9.82;6.75;;;4.60;99.90;;;;;;4966937;28;20031;-42
2023/03/16 09:08:38;;;;;;;10.43;6.35;;;4.60;99.90;;;;;;4965547;28;20050;-42
2023/03/16 09:11:13;;;;;;;10.93;6.43;;;4.60;99.90;;;;;;4963950;28;20389;-42
2023/03/16 09:13:39;;;;;;;7.35;5.28;;;4.80;99.90;;;;;;4965566;28;20530;-42
2023/03/16 09:16:06;;;;;;;9.60;6.70;;;4.80;99.90;;;;;;4961449;28;20037;-42
2023/03/16 09:18:34;;;;;;;9.48;6.07;;;4.90;99.90;;;;;;4961530;28;20086;-42
2023/03/16 09:21:01;;;;;;;12.43;6.45;;;5.10;99.90;;;;;;4962116;28;20043;-42
2023/03/16 09:23:28;;;;;;;12.63;7.55;;;5.20;99.90;;;;;;4969566;28;20034;-41
2023/03/16 09:25:58;;;;;;;9.10;6.63;;;5.20;99.90;;;;;;4956136;28;20532;-42
2023/03/16 09:28:26;;;;;;;12.23;7.60;;;5.10;99.90;;;;;;4963442;28;20031;-42
2023/03/16 09:30:56;;;;;;;10.60;6.75;;;5.30;99.90;;;;;;4953426;28;20107;-42
2023/03/16 09:33:23;;;;;;;11.68;6.60;;;5.40;99.90;;;;;;4965592;28;20507;-42
2023/03/16 09:35:49;;;;;;;9.90;6.25;;;5.60;99.90;;;;;;4951066;28;20146;-41
2023/03/16 09:38:16;;;;;;;9.45;5.60;;;5.70;99.90;;;;;;4962034;28;20197;-43
2023/03/16 09:40:42;;;;;;;11.88;6.60;;;5.50;99.90;;;;;;4963589;28;20031;-42
2023/03/16 09:43:27;;;;;;;13.55;4.45;;;5.60;99.90;;;;;;4969363;28;20033;-41
2023/03/16 09:46:16;;;;;;;8.73;6.05;;;5.80;99.90;;;;;;4965606;28;20374;-42
2023/03/16 09:48:41;;;;;;;8.38;3.78;;;6.00;99.90;;;;;;4970303;28;20031;-42
2023/03/16 09:51:19;;;;;;;7.63;5.22;;;6.00;99.90;;;;;;4968270;28;20043;-42
2023/03/16 09:53:46;;;;;;;6.53;4.22;;;5.90;99.90;;;;;;4964613;28;20027;-42
2023/03/16 09:56:25;;;;;;;9.40;5.33;;;6.00;99.90;;;;;;4956570;28;20033;-42
2023/03/16 09:58:51;;;;;;;7.05;4.93;;;6.30;99.90;;;;;;4962052;28;20576;-42
2023/03/16 10:01:26;;;;;;;6.57;3.50;;;6.50;99.90;;;;;;4959409;28;20067;-42
2023/03/16 10:04:10;;;;;;;8.05;4.85;;;6.60;99.90;;;;;;4963554;28;20481;-42
2023/03/16 10:06:50;;;;;;;9.70;4.57;;;6.80;99.90;;;;;;4959012;28;20535;-41
2023/03/16 10:09:27;;;;;;;5.85;3.72;;;6.80;99.90;;;;;;4962887;28;20026;-42
2023/03/16 10:11:56;;;;;;;6.25;4.22;;;6.80;99.90;;;;;;4958397;28;20034;-41
2023/03/16 10:14:29;;;;;;;5.95;3.63;;;6.70;99.90;;;;;;4964470;28;20034;-42
2023/03/16 10:17:04;;;;;;;6.97;4.68;;;6.80;99.90;;;;;;4957864;28;20038;-42
2023/03/16 10:19:41;;;;;;;5.97;3.08;;;6.60;99.90;;;;;;4960740;28;20042;-42
2023/03/16 10:22:22;;;;;;;5.28;3.90;;;6.70;99.90;;;;;;4960849;28;20031;-42
2023/03/16 10:25:07;;;;;;;5.00;3.60;;;6.80;99.90;;;;;;4965402;28;20042;-42
2023/03/16 10:27:35;;;;;;;9.00;5.55;;;6.60;99.50;;;;;;4962520;28;20448;-42
2023/03/16 10:30:06;;;;;;;5.15;3.92;;;6.80;99.90;;;;;;4962920;28;20034;-42
2023/03/16 10:32:35;;;;;;;6.97;5.47;;;6.80;99.90;;;;;;4956432;28;20042;-42
2023/03/16 10:35:28;;;;;;;6.18;4.43;;;6.80;99.90;;;;;;4953215;28;20042;-42
2023/03/16 10:37:55;;;;;;;6.03;4.88;;;6.90;99.90;;;;;;4960808;28;20034;-42
2023/03/16 10:40:21;;;;;;;6.03;4.40;;;7.20;99.90;;;;;;4958129;28;20031;-42
2023/03/16 10:42:46;;;;;;;7.95;5.82;;;7.50;99.90;;;;;;4965532;28;20054;-41
2023/03/16 10:45:33;;;;;;;8.25;4.13;;;7.40;99.90;;;;;;4963345;28;20039;-41
2023/03/16 10:48:15;;;;;;;6.88;4.43;;;7.40;99.90;;;;;;4964197;28;20093;-42
2023/03/16 10:50:43;;;;;;;7.05;4.60;;;7.40;99.90;;;;;;4963867;28;20051;-42
2023/03/16 10:53:18;;;;;;;11.45;4.63;;;7.30;99.90;;;;;;4964086;28;20042;-42
2023/03/16 10:55:46;;;;;;;6.10;4.40;;;7.30;99.90;;;;;;4958393;28;20093;-44
2023/03/16 10:58:27;;;;;;;8.07;4.70;;;7.50;99.90;;;;;;4961143;28;20506;-42
2023/03/16 11:00:53;;;;;;;8.10;5.03;;;7.50;99.90;;;;;;4962353;28;20118;-42
2023/03/16 11:03:31;;;;;;;5.03;4.20;;;7.40;99.90;;;;;;4961438;28;20031;-42
2023/03/16 11:06:02;;;;;;;4.88;3.83;;;7.60;99.90;;;;;;4963110;28;20102;-42
2023/03/16 11:08:40;;;;;;;7.60;4.88;;;7.40;99.90;;;;;;4963885;28;20027;-42
2023/03/16 11:11:13;;;;;;;7.18;4.10;;;7.50;99.90;;;;;;4971297;28;20089;-42
2023/03/16 11:13:44;;;;;;;7.80;5.53;;;7.40;99.90;;;;;;4971857;28;20031;-42
2023/03/16 11:16:37;;;;;;;5.05;4.10;;;7.50;99.90;;;;;;4967085;28;20420;-43
2023/03/16 11:19:13;;;;;;;5.30;3.70;;;7.60;99.90;;;;;;4965800;28;20449;-42
2023/03/16 11:21:50;;;;;;;5.10;3.33;;;7.70;97.70;;;;;;4973347;28;20093;-41
2023/03/16 11:24:32;;;;;;;5.97;4.00;;;7.70;99.90;;;;;;4963602;28;20053;-42
2023/03/16 11:27:01;;;;;;;4.65;4.00;;;7.70;99.20;;;;;;4968275;28;20030;-41
2023/03/16 11:29:51;;;;;;;5.80;3.75;;;7.80;99.90;;;;;;4964848;28;20035;-41
2023/03/16 11:32:44;;;;;;;5.30;3.83;;;7.90;99.90;;;;;;4965928;28;20031;-41
2023/03/16 11:35:18;;;;;;;5.50;4.00;;;8.10;99.90;;;;;;4970452;28;20110;-41
2023/03/16 11:37:57;;;;;;;5.78;3.33;;;8.30;97.90;;;;;;4991108;28;20107;-41
2023/03/16 11:40:37;;;;;;;4.80;3.83;;;8.10;96.00;;;;;;4961885;28;20027;-42
2023/03/16 11:43:26;;;;;;;4.38;3.47;;;8.00;98.40;;;;;;4968331;28;20027;-42
2023/03/16 11:46:09;;;;;;;;;;;8.00;95.90;;;;;;4958917;28;22080;-42
2023/03/16 11:49:10;;;;;;;3.85;3.38;;;8.00;99.90;;;;;;4963142;28;19913;-41
2023/03/16 11:51:47;;;;;;;5.57;3.33;;;7.90;94.20;;;;;;4980737;28;20027;-42
2023/03/16 11:54:17;;;;;;;6.00;3.97;;;8.00;96.30;;;;;;4962936;28;20077;-42
2023/03/16 11:56:48;;;;;;;6.90;4.38;;;8.00;96.20;;;;;;4950534;28;20034;-42
2023/03/16 11:59:55;;;;;;;5.70;3.88;;;7.90;98.30;;;;;;4956988;28;20074;-42
2023/03/16 12:02:57;;;;;;;6.30;3.70;;;8.00;94.50;;;;;;4964059;28;20039;-42
2023/03/16 12:05:22;;;;;;;5.47;4.10;;;8.00;93.70;;;;;;4962757;28;20548;-42
2023/03/16 12:07:56;;;;;;;5.68;3.97;;;8.10;99.90;;;;;;4961430;28;20081;-42
2023/03/16 12:10:32;;;;;;;5.47;3.92;;;8.00;96.90;;;;;;4959518;28;20031;-42
2023/03/16 12:13:15;;;;;;;8.82;3.60;;;8.00;93.90;;;;;;4961266;28;20547;-42
2023/03/16 12:15:53;;;;;;;4.43;3.78;;;7.90;93.00;;;;;;4966180;28;20046;-42
2023/03/16 12:18:40;;;;;;;6.45;4.47;;;7.90;97.50;;;;;;4956773;28;20532;-42
2023/03/16 12:21:18;;;;;;;5.53;4.25;;;8.00;99.90;;;;;;4956948;28;20101;-42
2023/03/16 12:23:55;;;;;;;6.05;3.35;;;8.10;98.00;;;;;;4965337;28;20027;-42
2023/03/16 12:26:24;;;;;;;6.85;3.55;;;8.10;94.60;;;;;;4963407;28;20034;-44
2023/03/16 12:28:53;;;;;;;5.13;3.50;;;8.20;91.60;;;;;;4958900;28;20027;-42
2023/03/16 12:31:21;;;;;;;4.95;3.60;;;8.00;93.60;;;;;;4965301;28;20114;-42
2023/03/16 12:34:02;;;;;;;3.92;3.35;;;8.10;92.90;;;;;;4961218;28;20039;-42
2023/03/16 12:36:56;;;;;;;4.38;3.58;;;8.00;90.90;;;;;;4964968;28;20081;-42
2023/03/16 12:39:46;;;;;;;4.85;3.50;;;8.00;92.30;;;;;;4968341;28;20027;-42
2023/03/16 12:42:46;;;;;;;4.47;3.85;;;8.10;98.00;;;;;;4965677;28;20027;-42
2023/03/16 12:45:16;;;;;;;5.63;3.47;;;8.10;92.50;;;;;;4963082;28;20043;-42
2023/03/16 12:47:42;;;;;;;4.18;2.75;;;8.30;97.50;;;;;;4962709;28;20161;-42
2023/03/16 12:50:11;;;;;;;3.65;2.70;;;8.40;86.80;;;;;;4969911;28;20459;-42
2023/03/16 12:52:45;;;;;;;4.80;3.15;;;8.40;87.60;;;;;;4966590;28;20082;-42
2023/03/16 12:55:13;;;;;;;4.18;3.00;;;8.50;82.00;;;;;;4961837;28;20054;-42
2023/03/16 12:57:41;;;;;;;3.83;2.70;;;8.30;78.50;;;;;;4959847;28;20032;-42
2023/03/16 13:00:09;;;;;;;4.57;3.20;;;8.30;88.60;;;;;;4964212;28;20378;-41
2023/03/16 13:02:43;;;;;;;4.23;3.07;;;8.40;83.50;;;;;;4961871;28;20093;-42
2023/03/16 13:05:15;;;;;;;3.33;2.95;;;8.40;82.70;;;;;;4961386;28;20031;-42